Time;durP1;ratioP1;P1;durP2;ratioP2;P2;SDS_P1;SDS_P2;PMS_P1;PMS_P2;Temp;Humidity;BMP_temperature;BMP_pressure;BME280_temperature;BME280_humidity;BME280_pressure;Samples;Min_cycle;Max_cycle;Signal;HPM_P1;HPM_P2
2024/01/21 00:02:05;;;;;;;7.23;5.83;;;;;;;-2.31;65.76;96183.22;4928775;29;20229;-87
2024/01/21 00:04:32;;;;;;;9.53;5.97;;;;;;;-2.17;65.38;96184.09;4931437;29;20205;-88
2024/01/21 00:06:58;;;;;;;12.13;7.10;;;;;;;-2.22;65.36;96150.72;4931590;29;20209;-87
2024/01/21 00:09:26;;;;;;;6.77;5.20;;;;;;;-2.18;64.90;96138.78;4930756;29;20217;-87
2024/01/21 00:11:53;;;;;;;8.27;4.80;;;;;;;-2.16;64.87;96142.03;4930693;29;20206;-87
2024/01/21 00:14:19;;;;;;;7.30;5.13;;;;;;;-2.08;64.79;96139.88;4930735;29;20213;-88
2024/01/21 00:19:33;;;;;;;7.43;5.23;;;;;;;-2.01;64.26;96110.06;4929714;29;20216;-87
2024/01/21 00:22:00;;;;;;;5.70;5.03;;;;;;;-2.03;64.28;96106.81;4931012;29;20218;-88
2024/01/21 00:24:39;;;;;;;6.30;4.83;;;;;;;-2.27;64.04;96089.66;4930206;29;20588;-87
2024/01/21 00:27:06;;;;;;;8.87;5.70;;;;;;;-2.45;64.69;96100.75;4931085;29;20209;-87
2024/01/21 00:29:43;;;;;;;6.97;5.43;;;;;;;-2.53;65.16;96123.06;4930704;29;20229;-87
2024/01/21 00:32:18;;;;;;;7.13;4.77;;;;;;;-2.63;65.41;96125.25;4930815;29;20236;-87
2024/01/21 00:34:46;;;;;;;5.47;4.60;;;;;;;-2.70;65.17;96125.69;4930448;29;20265;-88
2024/01/21 00:37:12;;;;;;;6.57;4.40;;;;;;;-2.77;65.15;96125.19;4930707;29;20222;-87
2024/01/21 00:39:44;;;;;;;6.00;4.40;;;;;;;-2.75;65.44;96122.59;4930716;29;20205;-88
2024/01/21 00:44:50;;;;;;;4.43;3.77;;;;;;;-2.83;65.09;96125.50;4931987;29;20201;-87
2024/01/21 00:47:23;;;;;;;6.37;4.50;;;;;;;-2.80;65.44;96136.25;4930166;29;20802;-87
2024/01/21 00:49:51;;;;;;;7.83;4.60;;;;;;;-2.90;65.26;96141.88;4933954;29;20718;-88
2024/01/21 00:52:17;;;;;;;6.00;4.60;;;;;;;-2.83;65.18;96125.50;4933958;29;20225;-87
2024/01/21 00:54:47;;;;;;;7.10;4.40;;;;;;;-2.91;65.29;96132.69;4936881;29;20216;-87
2024/01/21 00:57:20;;;;;;;6.17;4.27;;;;;;;-3.00;65.83;96128.13;4934074;29;20579;-87
2024/01/21 00:59:50;;;;;;;6.33;4.03;;;;;;;-2.96;65.55;96135.44;4934332;29;20206;-87
2024/01/21 01:02:22;;;;;;;6.17;4.37;;;;;;;-2.98;65.74;96133.91;4935519;29;20225;-87
2024/01/21 01:04:51;;;;;;;6.30;4.33;;;;;;;-2.99;65.61;96129.75;4934350;29;20205;-87
2024/01/21 01:10:12;;;;;;;5.67;4.10;;;;;;;-3.30;66.18;96138.09;4924210;29;20244;-87
2024/01/21 01:12:58;;;;;;;5.37;3.77;;;;;;;-3.25;66.07;96154.56;4933895;29;20218;-87
2024/01/21 01:15:37;;;;;;;5.30;3.67;;;;;;;-3.19;65.79;96139.16;4934052;29;20209;-87
2024/01/21 01:18:03;;;;;;;6.30;4.30;;;;;;;-3.15;65.46;96132.25;4935363;29;20208;-86
2024/01/21 01:20:30;;;;;;;6.03;4.03;;;;;;;-3.26;65.57;96124.44;4948901;29;20194;-87
2024/01/21 01:22:59;;;;;;;5.80;4.00;;;;;;;-3.30;65.81;96133.88;4934739;29;20233;-87
2024/01/21 01:25:26;;;;;;;9.23;4.40;;;;;;;-3.28;66.08;96131.28;4933901;29;20206;-87
2024/01/21 01:27:52;;;;;;;5.67;4.33;;;;;;;-3.17;65.83;96132.34;4934409;29;20217;-88
2024/01/21 01:30:19;;;;;;;5.20;4.10;;;;;;;-3.20;65.77;96114.88;4933806;29;20723;-87
2024/01/21 01:32:47;;;;;;;5.87;4.07;;;;;;;-3.10;65.52;96109.38;4933542;29;20225;-87
2024/01/21 01:35:14;;;;;;;6.87;4.83;;;;;;;-3.13;65.24;96101.06;4933355;29;20583;-87
2024/01/21 01:37:59;;;;;;;8.87;4.33;;;;;;;-2.95;65.29;96101.81;4932996;29;20701;-87
2024/01/21 01:40:26;;;;;;;5.73;3.93;;;;;;;-2.87;64.75;96087.06;4933872;29;20633;-87
2024/01/21 01:42:56;;;;;;;7.07;4.37;;;;;;;-2.85;64.50;96064.31;4931938;29;20222;-87
2024/01/21 01:45:23;;;;;;;5.40;4.07;;;;;;;-2.88;64.56;96072.84;4927232;29;20206;-87
2024/01/21 01:47:49;;;;;;;6.57;4.07;;;;;;;-2.76;64.62;96061.31;4933490;29;20227;-87
2024/01/21 01:50:22;;;;;;;5.80;3.67;;;;;;;-2.67;64.03;96058.28;4933236;29;20236;-87
2024/01/21 01:52:50;;;;;;;5.77;4.17;;;;;;;-2.56;63.88;96040.88;4933674;29;20415;-87
2024/01/21 01:55:34;;;;;;;7.23;4.33;;;;;;;-2.46;63.36;96034.41;4929851;29;20198;-87
2024/01/21 01:58:16;;;;;;;6.13;4.20;;;;;;;-2.43;62.73;95993.09;4923988;29;20205;-87
2024/01/21 02:01:09;;;;;;;6.17;4.13;;;;;;;-2.53;63.03;95982.72;4915551;29;20226;-86
2024/01/21 02:03:36;;;;;;;4.43;3.73;;;;;;;-2.61;63.01;95972.25;4914208;29;20573;-88
2024/01/21 02:06:02;;;;;;;5.93;4.00;;;;;;;-2.67;63.20;95976.81;4913831;29;20220;-87
2024/01/21 02:08:29;;;;;;;4.50;3.53;;;;;;;-2.86;63.39;95972.00;4927474;29;20273;-87
2024/01/21 02:11:02;;;;;;;4.63;3.80;;;;;;;-3.04;64.01;95986.44;4929562;29;20249;-87
2024/01/21 02:13:30;;;;;;;4.57;3.60;;;;;;;-3.14;64.46;96003.75;4932955;29;20265;-87
2024/01/21 02:15:58;;;;;;;5.93;4.20;;;;;;;-3.19;64.41;96008.22;4932876;29;20210;-87
2024/01/21 02:18:25;;;;;;;6.40;3.90;;;;;;;-3.19;64.63;96014.97;4932927;29;20201;-87
2024/01/21 02:20:52;;;;;;;4.57;3.93;;;;;;;-3.24;64.69;96021.94;4932734;29;20623;-87
2024/01/21 02:23:22;;;;;;;6.53;3.80;;;;;;;-3.21;64.77;96026.81;4932741;29;20591;-87
2024/01/21 02:25:48;;;;;;;7.40;4.00;;;;;;;-3.11;64.79;96024.63;4932293;29;20202;-87
2024/01/21 02:28:15;;;;;;;6.20;4.27;;;;;;;-2.96;64.12;96017.06;4921680;29;20244;-87
2024/01/21 02:30:42;;;;;;;5.57;4.07;;;;;;;-2.84;64.03;96001.25;4932633;29;20615;-87
2024/01/21 02:33:17;;;;;;;9.17;4.10;;;;;;;-2.89;63.80;95979.75;4932591;29;20731;-87
2024/01/21 02:35:44;;;;;;;5.80;3.93;;;;;;;-2.91;63.83;95982.34;4932488;29;20236;-87
2024/01/21 02:38:10;;;;;;;5.73;4.03;;;;;;;-2.73;63.50;95985.56;4931778;29;20201;-87
2024/01/21 02:40:39;;;;;;;4.80;3.80;;;;;;;-2.72;63.46;95968.72;4925307;29;20198;-87
2024/01/21 02:43:07;;;;;;;6.03;4.17;;;;;;;-2.62;62.99;95965.59;4931546;29;20217;-87
2024/01/21 02:45:34;;;;;;;5.50;3.97;;;;;;;-2.56;63.01;95952.66;4932096;29;20691;-87
2024/01/21 02:48:07;;;;;;;5.20;4.00;;;;;;;-2.51;62.87;95947.34;4931491;29;20233;-87
2024/01/21 02:50:34;;;;;;;6.17;3.93;;;;;;;-2.49;62.59;95938.78;4932385;29;20225;-87
2024/01/21 02:53:00;;;;;;;4.97;4.30;;;;;;;-2.46;62.55;95942.84;4932017;29;20229;-86
2024/01/21 02:55:27;;;;;;;5.80;4.13;;;;;;;-2.46;63.05;95957.97;4932206;29;20201;-87
2024/01/21 02:57:54;;;;;;;4.83;3.70;;;;;;;-2.41;63.06;95960.22;4932589;29;20201;-88
2024/01/21 03:00:21;;;;;;;6.53;4.40;;;;;;;-2.56;62.84;95952.66;4931684;29;20201;-88
2024/01/21 03:02:49;;;;;;;4.37;3.80;;;;;;;-2.72;63.48;95973.78;4931049;29;20329;-87
2024/01/21 03:05:16;;;;;;;5.20;3.90;;;;;;;-2.81;63.50;95988.50;4932067;29;20260;-88
2024/01/21 03:07:42;;;;;;;6.67;4.30;;;;;;;-3.01;64.28;96010.63;4931709;29;20206;-87
2024/01/21 03:10:09;;;;;;;6.07;4.23;;;;;;;-2.99;64.35;96022.25;4931557;29;20229;-87
2024/01/21 03:12:36;;;;;;;4.60;3.90;;;;;;;-2.90;64.20;96028.50;4921603;29;20221;-87
2024/01/21 03:15:05;;;;;;;4.87;4.20;;;;;;;-2.82;64.44;96027.19;4932145;29;20739;-87
2024/01/21 03:17:31;;;;;;;4.63;4.10;;;;;;;-2.72;64.12;96021.66;4931133;29;20698;-87
2024/01/21 03:19:58;;;;;;;6.80;3.70;;;;;;;-2.65;63.46;95997.72;4931755;29;20205;-87
2024/01/21 03:22:28;;;;;;;6.07;4.07;;;;;;;-2.61;62.71;95962.19;4931115;29;20313;-88
2024/01/21 03:24:54;;;;;;;4.87;3.57;;;;;;;-2.53;62.91;95952.47;4930751;29;20245;-87
2024/01/21 03:27:21;;;;;;;6.00;4.13;;;;;;;-2.43;62.54;95960.31;4931515;29;20209;-88
2024/01/21 03:29:47;;;;;;;4.97;3.87;;;;;;;-2.44;62.71;95949.41;4932948;29;20205;-88
2024/01/21 03:32:17;;;;;;;6.80;3.80;;;;;;;-2.51;62.16;95938.09;4930695;29;20221;-87
2024/01/21 03:34:57;;;;;;;5.47;3.80;;;;;;;-2.59;61.75;95907.47;4932219;29;20233;-87
2024/01/21 03:37:23;;;;;;;4.83;3.40;;;;;;;-2.63;61.89;95900.97;4926266;29;20210;-86
2024/01/21 03:39:50;;;;;;;5.07;3.50;;;;;;;-2.63;61.80;95902.69;4912688;29;20210;-87
2024/01/21 03:42:16;;;;;;;4.40;3.60;;;;;;;-2.59;61.69;95909.16;4929671;29;20221;-88
2024/01/21 03:44:43;;;;;;;4.63;3.80;;;;;;;-2.55;62.02;95893.78;4931230;29;20210;-87
2024/01/21 03:47:09;;;;;;;3.90;3.30;;;;;;;-2.52;61.99;95897.84;4930868;29;20198;-88
2024/01/21 03:49:37;;;;;;;6.00;4.13;;;;;;;-2.56;61.50;95889.66;4931375;29;20212;-87
2024/01/21 03:52:04;;;;;;;3.80;3.27;;;;;;;-2.56;61.61;95896.41;4930549;29;20330;-87
2024/01/21 03:54:33;;;;;;;4.50;3.63;;;;;;;-2.49;61.58;95907.72;4931170;29;20205;-87
2024/01/21 03:57:05;;;;;;;4.07;3.40;;;;;;;-2.45;61.68;95897.38;4914670;29;20194;-88
2024/01/21 03:59:42;;;;;;;;;;;;;;;;;;;;;
2024/01/21 04:02:11;;;;;;;6.90;3.47;;;;;;;-2.39;61.42;95892.88;4930669;29;20217;-87
2024/01/21 04:04:39;;;;;;;5.23;3.50;;;;;;;-2.42;61.63;95891.34;4931223;29;20205;-87
2024/01/21 04:07:05;;;;;;;4.37;3.57;;;;;;;-2.47;61.80;95891.59;4930844;29;20224;-87
2024/01/21 04:09:32;;;;;;;7.33;4.00;;;;;;;-2.40;61.75;95907.19;4931386;29;20567;-88
2024/01/21 04:12:01;;;;;;;5.60;3.80;;;;;;;-2.33;61.69;95907.66;4920648;29;20793;-87
2024/01/21 04:14:30;;;;;;;6.27;4.00;;;;;;;-2.34;61.53;95899.28;4931408;29;20213;-88
2024/01/21 04:17:00;;;;;;;4.63;3.17;;;;;;;-2.41;60.94;95874.50;4930845;29;20256;-86
2024/01/21 04:19:32;;;;;;;5.00;3.77;;;;;;;-2.48;61.01;95869.81;4931268;29;20219;-87
2024/01/21 04:22:12;;;;;;;5.40;3.87;;;;;;;-2.51;61.00;95862.47;4930474;29;20205;-88
2024/01/21 04:24:38;;;;;;;5.30;3.80;;;;;;;-2.51;60.85;95862.47;4930746;29;20288;-87
2024/01/21 04:27:05;;;;;;;4.37;3.50;;;;;;;-2.49;60.66;95855.59;4930798;29;20213;-86
2024/01/21 04:29:31;;;;;;;5.67;3.87;;;;;;;-2.50;60.90;95840.56;4931276;29;20216;-88
2024/01/21 04:32:01;;;;;;;7.20;4.23;;;;;;;-2.54;60.67;95842.47;4928943;29;20230;-86
2024/01/21 04:37:14;;;;;;;3.90;3.37;;;;;;;-2.62;60.60;95846.34;4928854;29;20216;-88
2024/01/21 04:42:34;;;;;;;;;;;;;;;;;;;;;
2024/01/21 04:45:21;;;;;;;5.53;3.60;;;;;;;-2.82;60.70;95844.97;4930425;29;20683;-87
2024/01/21 04:47:47;;;;;;;4.93;3.60;;;;;;;-2.92;60.66;95838.88;4930723;29;20198;-87
2024/01/21 04:50:14;;;;;;;4.27;3.33;;;;;;;-2.97;61.13;95843.34;4930885;29;20202;-87
2024/01/21 04:55:41;;;;;;;4.83;3.87;;;;;;;-3.10;61.79;95865.91;4892920;29;20207;-87
2024/01/21 04:58:20;;;;;;;6.60;4.40;;;;;;;-3.07;61.55;95867.41;4911931;29;20210;-89
2024/01/21 05:00:47;;;;;;;4.97;3.90;;;;;;;-3.08;62.05;95880.94;4912040;29;20213;-87
2024/01/21 05:03:20;;;;;;;7.00;4.57;;;;;;;-3.09;62.03;95890.19;4922835;29;20225;-87
2024/01/21 05:05:59;;;;;;;6.27;4.77;;;;;;;-3.11;62.21;95897.03;4930188;29;20228;-88
2024/01/21 05:08:35;;;;;;;6.10;4.43;;;;;;;-3.11;62.04;95901.25;4930434;29;20200;-87
2024/01/21 05:13:47;;;;;;;4.80;4.03;;;;;;;-3.14;62.36;95902.22;4926426;29;20368;-87
2024/01/21 05:19:01;;;;;;;6.37;4.87;;;;;;;-3.09;62.03;95896.94;4928531;29;20569;-88
2024/01/21 05:21:38;;;;;;;6.50;4.83;;;;;;;-3.09;61.91;95891.91;4930281;29;20222;-87
2024/01/21 05:24:20;;;;;;;5.53;4.20;;;;;;;-3.00;61.92;95896.41;4929470;29;20285;-87
2024/01/21 05:26:47;;;;;;;5.40;4.07;;;;;;;-3.02;61.70;95878.88;4929299;29;20693;-88
2024/01/21 05:32:03;;;;;;;5.80;4.73;;;;;;;-3.00;61.25;95863.66;4931242;29;20236;-88
2024/01/21 05:34:30;;;;;;;5.43;4.23;;;;;;;-3.06;60.96;95849.72;4933775;29;20671;-88
2024/01/21 05:39:41;;;;;;;5.37;4.13;;;;;;;-3.07;61.21;95837.19;4931971;29;20209;-88
2024/01/21 05:42:08;;;;;;;7.50;4.60;;;;;;;-3.08;60.77;95835.63;4933325;29;20221;-88
2024/01/21 05:44:35;;;;;;;5.20;4.13;;;;;;;-3.09;60.75;95828.94;4933234;29;20292;-88
2024/01/21 05:47:02;;;;;;;5.23;4.17;;;;;;;-3.10;60.87;95823.09;4933861;29;20240;-88
2024/01/21 05:49:29;;;;;;;4.57;3.73;;;;;;;-3.15;60.91;95828.41;4933179;29;20667;-88
2024/01/21 05:52:04;;;;;;;5.07;3.83;;;;;;;-3.10;61.25;95845.78;4932659;29;20655;-87
2024/01/21 05:54:31;;;;;;;4.80;3.97;;;;;;;-3.14;60.82;95834.25;4933368;29;20212;-87
2024/01/21 05:56:59;;;;;;;4.63;4.10;;;;;;;-3.15;60.92;95830.91;4933381;29;20292;-87
2024/01/21 05:59:25;;;;;;;7.40;4.40;;;;;;;-3.16;61.03;95848.63;4933237;29;20225;-88
2024/01/21 06:01:52;;;;;;;4.43;3.60;;;;;;;-3.14;61.09;95847.66;4933003;29;20194;-87
2024/01/21 06:04:24;;;;;;;4.97;3.60;;;;;;;-3.13;61.08;95850.97;4933307;29;20924;-87
2024/01/21 06:06:53;;;;;;;4.57;3.60;;;;;;;-3.15;61.22;95861.13;4933157;29;20256;-85
2024/01/21 06:09:23;;;;;;;4.37;3.50;;;;;;;-2.63;74.68;96361.34;4933655;29;20209;-88
2024/01/21 06:11:56;;;;;;;4.87;3.70;;;;;;;-2.59;64.37;95978.03;4921580;29;20218;-88
2024/01/21 06:14:44;;;;;;;5.30;3.53;;;;;;;-2.77;63.00;95878.28;4923132;29;20229;-88
2024/01/21 06:17:23;;;;;;;4.23;3.47;;;;;;;-2.90;62.85;95855.50;4931892;29;20213;-89
2024/01/21 06:19:52;;;;;;;3.83;3.43;;;;;;;-2.96;63.12;95870.16;4933809;29;20209;-88
2024/01/21 06:22:22;;;;;;;4.20;3.17;;;;;;;-3.03;63.53;95876.44;4932244;29;20221;-88
2024/01/21 06:24:57;;;;;;;4.60;3.70;;;;;;;-3.24;64.83;95949.75;4931443;29;20210;-88
2024/01/21 06:27:35;;;;;;;4.07;3.50;;;;;;;-3.44;64.83;95944.97;4918406;29;20202;-87
2024/01/21 06:30:13;;;;;;;3.57;3.23;;;;;;;-3.46;64.16;95940.94;4921185;29;20629;-87
2024/01/21 06:33:03;;;;;;;5.07;3.27;;;;;;;-3.40;64.39;95953.19;4921405;29;20619;-88
2024/01/21 06:35:57;;;;;;;3.80;3.40;;;;;;;-3.32;64.31;95949.38;4922433;29;20696;-88
2024/01/21 06:38:26;;;;;;;4.33;3.50;;;;;;;-3.35;63.95;95949.53;4923900;29;20206;-88
2024/01/21 06:43:48;;;;;;;3.37;3.07;;;;;;;-3.34;64.40;95978.03;4913771;29;20324;-88
2024/01/21 06:46:18;;;;;;;4.27;3.70;;;;;;;-3.30;64.71;95990.38;4926860;29;20213;-84
2024/01/21 06:52:30;;;;;;;;;;;;;;;;;;;;;
2024/01/21 06:55:20;;;;;;;12.47;3.70;;;;;;;-2.95;66.74;96136.25;4928063;29;20769;-87
2024/01/21 06:58:34;;;;;;;5.10;3.70;;;;;;;-2.98;63.99;95978.53;4887873;29;20215;-87
2024/01/21 07:05:14;;;;;;;4.87;3.80;;;;;;;-3.08;63.35;95938.84;4887863;29;20199;-87
2024/01/21 07:14:34;;;;;;;4.70;3.37;;;;;;;-2.94;63.96;95949.78;4864461;29;20230;-87
2024/01/21 07:17:10;;;;;;;;;;;;;;;;;;;;;
2024/01/21 07:19:53;;;;;;;4.43;3.33;;;;;;;-2.88;64.11;95977.13;4929323;29;20209;-89
2024/01/21 07:22:31;;;;;;;3.80;3.00;;;;;;;-2.83;64.21;95994.50;4928958;29;20308;-87
2024/01/21 07:25:24;;;;;;;3.33;2.90;;;;;;;-2.96;64.57;95991.88;4927813;29;20216;-88
2024/01/21 07:30:36;;;;;;;3.43;2.40;;;;;;;-2.65;64.01;95996.00;4930287;29;20201;-87
2024/01/21 07:46:26;;;;;;;2.30;2.10;;;;;;;-0.35;58.10;95782.94;4914844;29;20559;-87
2024/01/21 07:52:23;;;;;;;3.43;2.50;;;;;;;0.31;56.53;95670.28;4938240;28;20223;-87
2024/01/21 08:09:44;;;;;;;5.93;3.93;;;;;;;0.44;55.27;95626.31;4785611;29;20290;-90
2024/01/21 08:12:33;;;;;;;9.23;5.13;;;;;;;0.54;54.71;95602.72;4774792;29;20227;-91
2024/01/21 08:15:45;;;;;;;5.70;3.30;;;;;;;0.66;54.54;95583.25;4813993;29;20678;-92
2024/01/21 08:25:44;;;;;;;;;;;;;;;;;;;;;
2024/01/21 08:34:25;;;;;;;3.27;2.60;;;;;;;2.65;51.57;95491.03;4880325;29;20232;-88
2024/01/21 08:36:52;;;;;;;5.27;3.60;;;;;;;2.94;51.48;95475.00;4874020;29;20293;-86
2024/01/21 08:39:30;;;;;;;2.83;2.37;;;;;;;3.23;50.18;95416.53;4916100;29;20198;-87
2024/01/21 08:42:04;;;;;;;4.00;2.87;;;;;;;3.38;50.78;95435.50;4934971;29;20241;-87
2024/01/21 08:44:43;;;;;;;3.57;2.40;;;;;;;3.65;51.01;95439.91;4944511;29;20629;-88
2024/01/21 08:47:12;;;;;;;4.30;2.50;;;;;;;3.76;50.12;95411.72;4937615;29;20193;-88
2024/01/21 08:49:59;;;;;;;2.73;2.37;;;;;;;3.87;48.72;95335.13;4935237;29;20197;-87
2024/01/21 08:52:31;;;;;;;6.10;2.50;;;;;;;4.02;48.34;95318.47;4931884;29;20264;-87
2024/01/21 08:55:11;;;;;;;2.57;2.33;;;;;;;4.19;48.62;95327.06;4935659;29;20284;-88
2024/01/21 08:57:59;;;;;;;4.33;2.67;;;;;;;4.15;48.31;95303.63;4943606;29;20208;-87
2024/01/21 09:00:33;;;;;;;4.00;2.50;;;;;;;4.01;48.93;95338.97;4941158;28;20220;-87
2024/01/21 09:03:20;;;;;;;3.30;2.60;;;;;;;4.08;49.21;95355.28;4946047;29;20217;-87
2024/01/21 09:06:44;;;;;;;15.70;10.57;;;;;;;4.22;47.77;95308.94;4955548;29;20193;-88
2024/01/21 09:09:32;;;;;;;6.17;3.47;;;;;;;4.20;49.36;95402.56;4954391;29;20272;-88
2024/01/21 09:15:25;;;;;;;2.20;1.50;;;;;;;4.29;47.02;95253.09;4938883;29;20197;-88
2024/01/21 09:17:54;;;;;;;2.30;1.70;;;;;;;4.33;47.63;95265.41;4950301;29;20209;-87
2024/01/21 09:20:28;;;;;;;2.27;1.50;;;;;;;4.37;46.70;95217.50;4944595;29;20194;-88
2024/01/21 09:22:57;;;;;;;2.07;1.73;;;;;;;4.50;46.83;95212.81;4936395;29;20210;-87
2024/01/21 09:25:28;;;;;;;1.73;1.50;;;;;;;4.66;47.10;95235.06;4934507;29;20210;-88
2024/01/21 09:27:59;;;;;;;2.23;1.90;;;;;;;4.64;46.13;95184.22;4936013;29;20220;-88
2024/01/21 09:30:27;;;;;;;6.70;2.07;;;;;;;4.73;45.86;95174.88;4935365;29;20284;-86
2024/01/21 09:32:59;;;;;;;3.00;2.30;;;;;;;4.69;45.33;95141.22;4933069;29;20678;-86
2024/01/21 09:35:35;;;;;;;3.10;2.40;;;;;;;4.67;45.30;95127.84;4916449;29;20206;-86
2024/01/21 09:38:13;;;;;;;10.07;7.23;;;;;;;4.45;45.72;95139.34;4917148;29;20205;-88
2024/01/21 09:40:42;;;;;;;5.07;3.40;;;;;;;4.40;45.96;95150.94;4931909;29;20224;-85
2024/01/21 09:43:19;;;;;;;4.10;2.90;;;;;;;4.52;46.37;95172.69;4978795;23;20303;-85
2024/01/21 09:48:39;;;;;;;4.20;2.80;;;;;;;4.69;45.80;95165.94;4938859;29;20193;-90
2024/01/21 09:51:14;;;;;;;3.03;2.50;;;;;;;4.72;46.33;95174.09;4954221;29;20193;-90
2024/01/21 09:56:59;;;;;;;2.80;2.20;;;;;;;4.61;45.75;95140.41;4954975;28;20231;-91
2024/01/21 09:59:51;;;;;;;3.40;1.97;;;;;;;4.61;45.68;95137.84;4957147;28;20209;-91
2024/01/21 10:02:40;;;;;;;2.73;2.13;;;;;;;4.57;44.92;95088.91;4929304;28;20222;-90
2024/01/21 10:07:59;;;;;;;2.70;1.90;;;;;;;4.53;45.03;95090.16;4882786;29;20213;-90
2024/01/21 10:13:38;;;;;;;1.83;1.70;;;;;;;4.67;45.52;95125.28;4936649;28;20232;-88
2024/01/21 10:16:19;;;;;;;4.17;2.10;;;;;;;4.72;45.69;95130.75;4948922;28;20270;-84
2024/01/21 10:18:47;;;;;;;2.27;1.90;;;;;;;4.78;45.55;95114.03;4954755;28;20208;-84
2024/01/21 10:21:18;;;;;;;3.37;2.10;;;;;;;5.04;45.91;95136.94;4954537;28;20259;-85
2024/01/21 10:23:45;;;;;;;3.50;2.30;;;;;;;5.11;45.56;95136.16;4944296;28;20224;-87
2024/01/21 10:26:49;;;;;;;4.43;2.43;;;;;;;5.36;45.20;95128.59;4933945;29;20213;-90
2024/01/21 10:29:50;;;;;;;2.53;1.90;;;;;;;5.35;43.98;95043.56;4914717;29;20238;-92
2024/01/21 10:35:36;;;;;;;3.90;1.70;;;;;;;5.73;43.78;95036.25;4941256;28;20636;-91
2024/01/21 10:38:05;;;;;;;2.93;2.03;;;;;;;5.89;44.76;95082.25;4913821;29;20202;-90
2024/01/21 10:40:48;;;;;;;5.70;2.57;;;;;;;6.05;44.34;95072.03;4940636;28;20229;-90
2024/01/21 10:43:34;;;;;;;2.27;1.40;;;;;;;6.14;43.30;95031.94;4941365;28;20300;-91
2024/01/21 10:46:07;;;;;;;2.60;1.97;;;;;;;6.12;42.83;94998.88;4932071;29;20212;-91
2024/01/21 10:54:09;;;;;;;3.97;1.70;;;;;;;5.98;43.13;94985.94;4926664;28;20341;-86
2024/01/21 10:56:36;;;;;;;3.67;1.67;;;;;;;5.98;43.19;95012.28;4930555;29;20197;-86
2024/01/21 10:59:08;;;;;;;6.33;1.73;;;;;;;6.06;44.15;95071.06;4932806;29;20229;-86
2024/01/21 11:01:43;;;;;;;9.67;2.00;;;;;;;6.15;44.21;95089.75;4930109;29;20205;-86
2024/01/21 11:04:13;;;;;;;9.77;2.10;;;;;;;6.20;43.82;95079.81;4930427;29;20227;-86
2024/01/21 11:06:43;;;;;;;2.70;1.70;;;;;;;6.26;44.02;95084.28;4930891;29;20202;-86
2024/01/21 11:09:26;;;;;;;9.37;2.87;;;;;;;6.28;44.05;95097.72;4930782;29;20249;-86
2024/01/21 11:12:04;;;;;;;10.30;5.27;;;;;;;6.31;44.54;95110.19;4931355;28;20715;-86
2024/01/21 11:14:34;;;;;;;2.23;1.97;;;;;;;6.23;44.90;95133.19;4930360;29;20244;-86
2024/01/21 11:17:10;;;;;;;3.53;1.80;;;;;;;6.10;45.05;95155.88;4930430;29;20200;-86
2024/01/21 11:19:46;;;;;;;2.43;1.50;;;;;;;6.03;45.43;95168.47;4931966;29;20342;-86
2024/01/21 11:22:13;;;;;;;9.70;6.43;;;;;;;5.95;45.16;95165.94;4930113;28;20211;-86
2024/01/21 11:24:40;;;;;;;12.93;8.53;;;;;;;5.89;45.19;95161.44;4929989;29;20726;-85
2024/01/21 11:27:49;;;;;;;7.47;4.40;;;;;;;5.84;45.38;95187.44;4928842;29;20202;-86
2024/01/21 11:30:25;;;;;;;8.23;1.70;;;;;;;5.77;45.55;95194.09;4919920;28;20202;-85
2024/01/21 11:33:23;;;;;;;3.00;1.20;;;;;;;5.67;45.21;95164.56;4929183;29;20232;-86
2024/01/21 11:35:50;;;;;;;3.93;1.40;;;;;;;5.59;44.56;95104.06;4930998;29;20205;-82
2024/01/21 11:38:18;;;;;;;5.53;1.47;;;;;;;5.53;44.17;95077.41;4935512;29;20260;-81
2024/01/21 11:40:45;;;;;;;3.63;1.30;;;;;;;5.53;44.62;95100.41;4935336;29;20630;-83
2024/01/21 11:43:12;;;;;;;1.53;1.00;;;;;;;5.51;45.34;95129.59;4934056;29;20225;-84
2024/01/21 11:45:39;;;;;;;2.47;1.50;;;;;;;5.39;45.00;95139.28;4932395;29;20197;-86
2024/01/21 11:48:13;;;;;;;1.40;1.30;;;;;;;5.37;45.07;95140.41;4929468;29;20228;-86
2024/01/21 11:50:39;;;;;;;5.23;1.23;;;;;;;5.35;45.37;95145.66;4929701;29;20226;-85
2024/01/21 11:53:06;;;;;;;7.20;1.97;;;;;;;5.38;45.26;95149.66;4929038;29;20244;-85
2024/01/21 11:55:37;;;;;;;5.50;1.73;;;;;;;5.40;45.14;95147.72;4929204;29;20209;-85
2024/01/21 11:58:04;;;;;;;6.23;1.60;;;;;;;5.35;45.07;95132.09;4929320;29;20225;-86
2024/01/21 12:00:31;;;;;;;4.23;1.57;;;;;;;5.36;45.42;95154.13;4929166;29;20193;-86
2024/01/21 12:02:57;;;;;;;4.77;1.70;;;;;;;5.35;45.76;95160.19;4929433;29;20246;-85
2024/01/21 12:05:26;;;;;;;5.57;1.90;;;;;;;5.31;45.55;95162.25;4928560;28;20197;-85
2024/01/21 12:07:56;;;;;;;4.90;2.00;;;;;;;5.33;46.05;95169.75;4929525;29;20720;-86
2024/01/21 12:10:22;;;;;;;4.83;1.90;;;;;;;5.35;45.89;95186.50;4929952;29;20214;-86
2024/01/21 12:12:49;;;;;;;4.50;2.50;;;;;;;5.41;45.88;95179.97;4935569;28;20221;-86
2024/01/21 12:15:19;;;;;;;6.77;2.20;;;;;;;5.48;46.43;95199.63;4937203;29;20208;-87
2024/01/21 12:17:53;;;;;;;4.07;2.43;;;;;;;5.51;46.15;95190.88;4950564;28;20209;-85
2024/01/21 12:20:20;;;;;;;6.60;2.47;;;;;;;5.59;46.49;95207.94;4950715;28;20207;-86
2024/01/21 12:22:49;;;;;;;3.50;1.90;;;;;;;5.59;46.40;95218.97;4936685;28;20221;-86
2024/01/21 12:25:24;;;;;;;4.40;2.30;;;;;;;5.62;46.52;95228.88;4931238;29;20747;-87
2024/01/21 12:27:57;;;;;;;5.20;2.47;;;;;;;5.67;46.56;95226.66;4928426;29;20205;-86
2024/01/21 12:30:25;;;;;;;6.17;2.67;;;;;;;5.74;46.97;95244.72;4930630;28;20288;-86
2024/01/21 12:32:53;;;;;;;5.53;2.33;;;;;;;5.78;46.82;95243.44;4930872;29;20273;-86
2024/01/21 12:35:23;;;;;;;3.67;2.20;;;;;;;5.73;46.60;95243.13;4931478;28;20232;-86
2024/01/21 12:37:53;;;;;;;6.53;2.27;;;;;;;5.70;46.84;95236.56;4931454;29;20206;-86
2024/01/21 12:40:25;;;;;;;4.60;2.20;;;;;;;5.70;47.10;95238.31;4937723;28;20202;-85
2024/01/21 12:42:52;;;;;;;7.10;2.37;;;;;;;5.73;47.17;95261.00;4935212;29;20289;-86
2024/01/21 12:45:22;;;;;;;4.33;2.20;;;;;;;5.78;46.64;95254.47;4935021;29;20201;-86
2024/01/21 12:47:49;;;;;;;7.57;2.43;;;;;;;5.84;46.68;95258.97;4935750;28;20209;-85
2024/01/21 12:50:15;;;;;;;6.20;1.80;;;;;;;5.91;46.58;95258.38;4934932;29;20671;-86
2024/01/21 12:52:42;;;;;;;3.13;1.90;;;;;;;5.98;46.68;95265.25;4934623;28;20256;-85
2024/01/21 12:55:14;;;;;;;7.63;3.40;;;;;;;5.93;48.34;95367.13;4936675;29;20866;-85
2024/01/21 12:57:43;;;;;;;10.70;4.67;;;;;;;5.87;49.29;95434.94;4946321;28;20217;-85
2024/01/21 13:00:12;;;;;;;8.87;4.30;;;;;;;5.84;49.76;95473.56;4934787;29;20204;-85
2024/01/21 13:02:39;;;;;;;6.13;2.50;;;;;;;5.75;48.90;95433.59;4934706;29;20233;-86
2024/01/21 13:05:13;;;;;;;3.83;2.17;;;;;;;5.70;48.26;95369.38;4933983;29;20201;-85
2024/01/21 13:07:41;;;;;;;12.40;3.90;;;;;;;5.68;49.00;95406.25;4934598;29;20694;-85
2024/01/21 13:10:08;;;;;;;6.63;3.10;;;;;;;5.68;49.28;95424.91;4934286;29;20679;-85
2024/01/21 13:12:57;;;;;;;4.53;2.83;;;;;;;5.67;49.16;95420.75;4951414;29;20221;-85
2024/01/21 13:15:33;;;;;;;5.30;3.87;;;;;;;5.67;49.94;95443.75;4953366;28;20216;-88
2024/01/21 13:18:13;;;;;;;5.20;2.80;;;;;;;5.80;49.48;95446.69;4954446;28;20209;-85
2024/01/21 13:20:44;;;;;;;4.53;2.70;;;;;;;5.90;48.52;95385.31;4953278;28;20737;-85
2024/01/21 13:23:24;;;;;;;10.60;2.60;;;;;;;6.05;47.82;95349.75;4953281;28;20819;-85
2024/01/21 13:25:57;;;;;;;5.87;2.47;;;;;;;6.12;48.17;95348.19;4918414;28;20218;-86
2024/01/21 13:30:43;;;;;;;7.53;2.90;;;;;;;6.10;48.00;95345.00;4915148;29;20274;-85
2024/01/21 13:31:38;;;;;;;4.70;2.80;;;;;;;6.02;48.15;95350.06;4919058;29;20257;-85
2024/01/21 13:34:11;;;;;;;6.33;2.33;;;;;;;5.97;48.44;95372.72;4953390;28;20364;-85
2024/01/21 13:36:41;;;;;;;3.80;2.80;;;;;;;5.88;48.54;95394.84;4951219;28;20267;-85
2024/01/21 13:39:09;;;;;;;4.83;2.50;;;;;;;5.83;49.29;95431.06;4953373;28;20213;-86
2024/01/21 13:41:36;;;;;;;6.80;2.57;;;;;;;5.79;48.88;95427.22;4953044;28;20208;-88
2024/01/21 13:44:13;;;;;;;6.73;3.00;;;;;;;5.74;49.42;95434.53;4952661;28;20232;-85
2024/01/21 13:46:54;;;;;;;9.20;3.17;;;;;;;5.77;49.51;95443.66;4952925;28;20300;-85
2024/01/21 13:49:26;;;;;;;4.77;2.90;;;;;;;5.86;49.17;95429.97;4946474;28;20198;-86
2024/01/21 13:51:54;;;;;;;6.30;2.90;;;;;;;6.16;62.01;96057.53;4938637;28;20242;-81
2024/01/21 13:54:20;;;;;;;5.90;3.57;;;;;;;6.64;65.82;96244.19;4936911;29;20285;-80
2024/01/21 13:56:56;;;;;;;6.17;2.87;;;;;;;6.87;52.32;95720.03;4936449;29;21816;-86
2024/01/21 13:59:23;;;;;;;10.37;2.60;;;;;;;6.87;48.29;95424.00;4952506;28;20235;-86
2024/01/21 14:01:50;;;;;;;3.50;2.13;;;;;;;6.77;46.94;95313.31;4950626;28;20201;-85
2024/01/21 14:04:21;;;;;;;3.80;2.07;;;;;;;6.70;46.83;95279.09;4952395;28;20221;-85
2024/01/21 14:07:01;;;;;;;5.07;1.90;;;;;;;6.69;46.86;95280.06;4941433;28;20695;-85